Hayes, South Dakota
Current Conditions -  °F | °C
As of 7:55 AM on Monday 22 Dec 2014 (Local Time) from KPHP Reporting Station
Broken Clouds Broken Clouds  
Wind Chill: 30°   Ceiling: 12000
Heat Index: 39°   Visibility: 10mi
Dew Point: 29°   Wind: 16mph
Humidity: 67%   Direction: 300°WNW
Pressure: 29.52"   Gusts: 24mph
Location:  44.37°N, 101.02°W
Report Text: KPHP 221455Z AUTO 30014G21KT 10SM FEW036 BKN120 04/M02 A2952 RMK AO2 PK WND 29027/1356 SLP006 T00391017 51008
Loading
Personal Weather Stations






























Interactive Weather Map New forecast layout! Learn more

10-Day Weather Forecast

Advertisements
Track Severe Weather on mobile